KTRI/TRI METAR and TAF weather

Enter ICAO airport designator
Station Type Date Time Source
KTRI METAR 2020/09/21 09:53 UTC NOAA

KTRI 210953Z 00000KT 10SM CLR 07/05 A3043 RMK AO2 SLP291 T00720050


Station Type Date Time Source
KTRI Decoded METAR 2020/09/21 09:53 UTC NOAA

TRI-CITY REGIONAL AIRPORT, TN, United States (KTRI) 36-28N 082-24W 474M
Sep 21, 2020 - 05:53 AM EDT / 2020.09.21 0953 UTC
Wind: Calm:0
Visibility: 10 mile(s):0
Sky conditions: clear
Temperature: 45.0 F (7.2 C)
Dew Point: 41.0 F (5.0 C)
Relative Humidity: 85%
Pressure (altimeter): 30.43 in. Hg (1030 hPa)
ob: KTRI 210953Z 00000KT 10SM CLR 07/05 A3043 RMK AO2 SLP291 T00720050
cycle: 10

Station Type Date Time Source
KTRI TAF 2020/09/21 06:27 UTC NOAA

TAF KTRI 210525Z 2106/2206 00000KT P6SM SKC
FM211500 08004KT P6SM SKC
FM220100 00000KT P6SM FEW250

Example: see airport list